createdAt,value
2019-04-10T00:01:02.147Z,92.20
2019-04-10T00:03:33.649Z,92.40
2019-04-10T00:06:00.744Z,92.80
2019-04-10T00:08:30.289Z,92.90
2019-04-10T00:10:58.919Z,92.80
2019-04-10T00:13:28.855Z,93.30
2019-04-10T00:15:57.315Z,93.90
2019-04-10T00:18:26.272Z,92.00
2019-04-10T00:20:54.895Z,92.40
2019-04-10T00:23:23.318Z,92.50
2019-04-10T00:25:52.926Z,92.60
2019-04-10T00:28:21.891Z,92.90
2019-04-10T00:30:51.254Z,93.20
2019-04-10T00:33:20.780Z,93.30
2019-04-10T00:35:49.872Z,93.40
2019-04-10T00:38:18.323Z,94.00
2019-04-10T00:40:47.795Z,94.60
2019-04-10T00:43:17.050Z,95.10
2019-04-10T00:45:45.969Z,95.10
2019-04-10T00:48:15.494Z,95.40
2019-04-10T00:50:44.604Z,96.20
2019-04-10T00:53:13.466Z,96.90
2019-04-10T00:55:41.967Z,96.90
2019-04-10T00:58:10.522Z,97.90
2019-04-10T01:00:39.288Z,97.60
2019-04-10T01:03:07.909Z,97.50
2019-04-10T01:05:37.515Z,97.80
2019-04-10T01:08:06.591Z,98.10
2019-04-10T01:10:35.416Z,98.60
2019-04-10T01:13:04.894Z,99.00
2019-04-10T01:15:34.404Z,99.30
2019-04-10T01:18:03.136Z,99.20
2019-04-10T01:20:31.591Z,99.70
2019-04-10T01:23:00.071Z,99.60
2019-04-10T01:25:28.561Z,99.90
2019-04-10T01:27:58.316Z,99.90
2019-04-10T01:30:26.911Z,99.70
2019-04-10T01:32:56.537Z,99.00
2019-04-10T01:35:25.074Z,99.20
2019-04-10T01:37:58.183Z,98.90
2019-04-10T01:40:23.697Z,98.50
2019-04-10T01:43:02.773Z,99.10
2019-04-10T01:45:22.262Z,99.60
2019-04-10T01:47:51.215Z,99.90
2019-04-10T01:50:20.097Z,99.90
2019-04-10T01:52:49.128Z,99.90
2019-04-10T01:55:25.284Z,99.90
2019-04-10T01:57:48.514Z,99.90
2019-04-10T02:00:19.533Z,99.90
2019-04-10T02:02:54.077Z,99.90
2019-04-10T02:05:22.948Z,99.90
2019-04-10T02:08:01.333Z,99.90
2019-04-10T02:10:21.624Z,99.90
2019-04-10T02:12:50.822Z,99.90
2019-04-10T02:15:19.788Z,99.90
2019-04-10T02:17:48.719Z,99.90
2019-04-10T02:20:17.347Z,99.90
2019-04-10T02:22:45.888Z,99.90
2019-04-10T02:25:15.699Z,99.90
2019-04-10T02:27:44.713Z,99.90
2019-04-10T02:30:16.414Z,99.90
2019-04-10T02:32:47.646Z,99.90
2019-04-10T02:35:17.184Z,99.90
2019-04-10T02:37:44.357Z,99.90
2019-04-10T02:40:14.908Z,99.90
2019-04-10T02:42:45.002Z,99.90
2019-04-10T02:45:14.893Z,99.90
2019-04-10T02:47:44.991Z,99.90
2019-04-10T02:50:14.256Z,99.90
2019-04-10T02:52:43.288Z,99.90
2019-04-10T02:55:12.044Z,99.90
2019-04-10T02:57:41.381Z,99.90
2019-04-10T03:00:12.763Z,99.90
2019-04-10T03:02:41.698Z,99.90
2019-04-10T03:05:11.117Z,99.90
2019-04-10T03:07:40.391Z,99.90
2019-04-10T03:10:20.532Z,99.90
2019-04-10T03:12:41.051Z,99.90
2019-04-10T03:15:12.362Z,99.90
2019-04-10T03:17:40.672Z,99.90
2019-04-10T03:20:10.021Z,99.90
2019-04-10T03:22:38.569Z,99.90
2019-04-10T03:25:08.736Z,99.90
2019-04-10T03:27:38.556Z,99.90
2019-04-10T03:30:12.110Z,99.90
2019-04-10T03:32:50.274Z,99.90
2019-04-10T03:35:27.578Z,99.90
2019-04-10T03:37:57.311Z,99.90
2019-04-10T03:40:27.068Z,99.90
2019-04-10T03:42:55.652Z,99.90
2019-04-10T03:45:24.435Z,99.90
2019-04-10T03:47:52.879Z,99.90
2019-04-10T03:50:21.276Z,99.90
2019-04-10T03:52:49.719Z,99.90
2019-04-10T03:55:18.910Z,99.90
2019-04-10T03:57:47.598Z,99.90
2019-04-10T04:00:16.585Z,99.90
2019-04-10T04:02:44.978Z,99.90
2019-04-10T04:05:13.386Z,99.90
2019-04-10T04:07:43.134Z,99.90
2019-04-10T04:10:13.242Z,99.90
2019-04-10T04:12:42.554Z,99.90
2019-04-10T04:15:11.526Z,99.90
2019-04-10T04:17:40.146Z,99.90
2019-04-10T04:20:08.939Z,99.90
2019-04-10T04:22:37.385Z,99.90
2019-04-10T04:25:06.909Z,99.90
2019-04-10T04:27:35.710Z,99.90
2019-04-10T04:30:07.046Z,99.90
2019-04-10T04:32:35.453Z,99.90
2019-04-10T04:35:04.695Z,99.90
2019-04-10T04:37:33.571Z,99.90
2019-04-10T04:40:03.041Z,99.90
2019-04-10T04:42:32.924Z,99.90
2019-04-10T04:45:01.518Z,99.90
2019-04-10T04:47:30.915Z,99.90
2019-04-10T04:49:59.541Z,99.90
2019-04-10T04:52:27.959Z,99.90
2019-04-10T04:54:57.323Z,99.90
2019-04-10T04:57:25.925Z,99.90
2019-04-10T04:59:54.373Z,99.90
2019-04-10T05:02:22.977Z,99.90
2019-04-10T05:04:51.527Z,99.90
2019-04-10T05:07:20.335Z,99.90
2019-04-10T05:09:49.030Z,99.90
2019-04-10T05:12:18.060Z,99.90
2019-04-10T05:14:46.503Z,98.90
2019-04-10T05:17:16.674Z,98.70
2019-04-10T05:19:45.102Z,98.80
2019-04-10T05:22:14.381Z,98.90
2019-04-10T05:24:42.960Z,98.70
2019-04-10T05:27:11.912Z,98.10
2019-04-10T05:29:40.880Z,97.90
2019-04-10T05:32:09.463Z,98.00
2019-04-10T05:34:38.354Z,98.00
2019-04-10T05:37:07.341Z,98.00
2019-04-10T05:39:43.189Z,98.10
2019-04-10T05:42:06.410Z,97.50
2019-04-10T05:44:35.962Z,97.70
2019-04-10T05:47:05.396Z,97.30
2019-04-10T05:49:33.901Z,96.80
2019-04-10T05:52:02.324Z,97.10
2019-04-10T05:54:31.111Z,97.30
2019-04-10T05:56:59.586Z,97.40
2019-04-10T05:59:28.188Z,97.20
2019-04-10T06:01:57.000Z,97.90
2019-04-10T06:04:25.513Z,98.10
2019-04-10T06:06:54.820Z,97.70
2019-04-10T06:09:24.504Z,98.10
2019-04-10T06:11:53.259Z,98.20
2019-04-10T06:14:22.063Z,98.60
2019-04-10T06:16:51.058Z,98.70
2019-04-10T06:19:19.944Z,98.60
2019-04-10T06:21:48.532Z,98.80
2019-04-10T06:24:18.192Z,99.00
2019-04-10T06:26:47.918Z,98.70
2019-04-10T06:29:17.115Z,98.90
2019-04-10T06:31:45.647Z,99.10
2019-04-10T06:34:16.146Z,99.00
2019-04-10T06:36:44.429Z,99.10
2019-04-10T06:39:13.014Z,99.70
2019-04-10T06:41:41.452Z,98.90
2019-04-10T06:44:09.954Z,99.60
2019-04-10T06:46:39.393Z,96.90
2019-04-10T06:49:09.273Z,95.60
2019-04-10T06:51:37.891Z,95.50
2019-04-10T06:54:09.871Z,95.60
2019-04-10T06:56:37.514Z,93.40
2019-04-10T06:59:06.697Z,92.90
2019-04-10T07:01:44.337Z,93.00
2019-04-10T07:04:07.984Z,93.00
2019-04-10T07:06:48.999Z,93.20
2019-04-10T07:09:09.569Z,93.40
2019-04-10T07:11:38.633Z,93.90
2019-04-10T07:14:13.416Z,92.50
2019-04-10T07:16:38.256Z,93.20
2019-04-10T07:19:08.816Z,93.50
2019-04-10T07:21:37.580Z,93.80
2019-04-10T07:24:10.562Z,94.50
2019-04-10T07:26:42.006Z,94.00
2019-04-10T07:29:08.969Z,93.60
2019-04-10T07:31:38.256Z,92.10
2019-04-10T07:34:08.829Z,90.80
2019-04-10T07:36:41.468Z,91.30
2019-04-10T07:39:07.856Z,90.10
2019-04-10T07:41:36.261Z,88.80
2019-04-10T07:44:05.806Z,86.90
2019-04-10T07:46:34.727Z,85.50
2019-04-10T07:49:03.264Z,85.80
2019-04-10T07:51:31.932Z,85.30
2019-04-10T07:54:00.460Z,86.20
2019-04-10T07:56:29.119Z,86.40
2019-04-10T07:58:57.685Z,87.20
2019-04-10T08:01:26.397Z,88.00
2019-04-10T08:03:55.660Z,84.90
2019-04-10T08:06:24.207Z,85.40
2019-04-10T08:08:54.068Z,85.50
2019-04-10T08:11:22.478Z,86.10
2019-04-10T08:13:51.241Z,85.60
2019-04-10T08:16:19.702Z,86.20
2019-04-10T08:18:48.113Z,86.30
2019-04-10T08:21:17.654Z,85.50
2019-04-10T08:23:46.513Z,85.40
2019-04-10T08:26:15.037Z,84.60
2019-04-10T08:28:43.488Z,83.70
2019-04-10T08:31:12.760Z,82.30
2019-04-10T08:33:42.050Z,83.60
2019-04-10T08:36:10.941Z,81.90
2019-04-10T08:38:40.112Z,82.30
2019-04-10T08:41:08.785Z,82.10
2019-04-10T08:43:37.610Z,80.40
2019-04-10T08:46:06.141Z,80.00
2019-04-10T08:48:34.688Z,80.50
2019-04-10T08:51:03.201Z,80.80
2019-04-10T08:53:31.661Z,81.90
2019-04-10T08:56:00.137Z,80.90
2019-04-10T08:58:28.591Z,79.00
2019-04-10T09:00:57.007Z,78.70
2019-04-10T09:03:26.653Z,79.40
2019-04-10T09:05:55.315Z,79.70
2019-04-10T09:08:24.581Z,80.20
2019-04-10T09:10:53.170Z,78.90
2019-04-10T09:13:22.170Z,79.60
2019-04-10T09:15:51.026Z,79.20
2019-04-10T09:18:20.975Z,81.10
2019-04-10T09:20:49.546Z,79.80
2019-04-10T09:23:27.819Z,76.50
2019-04-10T09:25:49.090Z,76.50
2019-04-10T09:28:18.194Z,75.50
2019-04-10T09:30:46.935Z,75.60
2019-04-10T09:33:22.049Z,75.50
2019-04-10T09:35:46.828Z,76.50
2019-04-10T09:38:15.350Z,74.20
2019-04-10T09:40:44.711Z,73.60
2019-04-10T09:43:14.228Z,72.90
2019-04-10T09:45:43.774Z,73.50
2019-04-10T09:48:12.812Z,72.50
2019-04-10T09:50:41.822Z,70.60
2019-04-10T09:53:10.783Z,70.60
2019-04-10T09:55:40.290Z,70.30
2019-04-10T09:58:08.949Z,70.10
2019-04-10T10:00:38.187Z,68.80
2019-04-10T10:03:07.587Z,67.20
2019-04-10T10:05:36.934Z,65.60
2019-04-10T10:08:06.433Z,64.80
2019-04-10T10:10:37.215Z,65.90
2019-04-10T10:13:06.129Z,64.10
2019-04-10T10:15:35.520Z,64.20
2019-04-10T10:18:04.070Z,62.50
2019-04-10T10:20:32.511Z,64.20
2019-04-10T10:23:01.322Z,62.30
2019-04-10T10:25:30.977Z,64.80
2019-04-10T10:27:59.645Z,63.90
2019-04-10T10:30:28.224Z,64.40
2019-04-10T10:32:57.279Z,63.80
2019-04-10T10:35:25.792Z,63.80
2019-04-10T10:37:54.713Z,64.20
2019-04-10T10:40:25.554Z,61.40
2019-04-10T10:42:54.101Z,62.50
2019-04-10T10:45:22.864Z,63.10
2019-04-10T10:47:52.601Z,63.60
2019-04-10T10:50:22.195Z,62.80
2019-04-10T10:52:51.922Z,62.60
2019-04-10T10:55:21.269Z,62.50
2019-04-10T10:57:50.890Z,61.90
2019-04-10T11:00:21.407Z,60.50
2019-04-10T11:02:49.937Z,61.00
2019-04-10T11:05:19.094Z,59.70
2019-04-10T11:07:48.908Z,59.60
2019-04-10T11:10:22.060Z,57.60
2019-04-10T11:12:48.376Z,57.10
2019-04-10T11:15:18.289Z,58.10
2019-04-10T11:17:47.216Z,58.70
2019-04-10T11:20:17.641Z,56.40
2019-04-10T11:22:47.445Z,55.00
2019-04-10T11:25:16.013Z,54.90
2019-04-10T11:27:44.421Z,55.00
2019-04-10T11:30:13.749Z,55.10
2019-04-10T11:32:42.480Z,55.00
2019-04-10T11:35:13.065Z,54.90
2019-04-10T11:37:46.829Z,55.10
2019-04-10T11:40:16.278Z,54.50
2019-04-10T11:42:44.589Z,54.20
2019-04-10T11:45:16.181Z,52.70
2019-04-10T11:47:44.914Z,51.90
2019-04-10T11:50:17.247Z,52.10
2019-04-10T11:52:51.224Z,50.70
2019-04-10T11:55:19.810Z,51.50
2019-04-10T11:57:48.626Z,50.50
2019-04-10T12:00:19.651Z,50.50
2019-04-10T12:02:49.696Z,50.60
2019-04-10T12:05:19.916Z,49.50
2019-04-10T12:08:18.118Z,50.00
2019-04-10T12:12:48.133Z,49.20
2019-04-10T12:15:17.279Z,50.00
2019-04-10T12:17:46.509Z,50.10
2019-04-10T12:20:16.636Z,49.70
2019-04-10T12:22:46.186Z,49.30
2019-04-10T12:25:15.869Z,48.20
2019-04-10T12:27:45.288Z,48.20
2019-04-10T12:30:15.201Z,48.40
2019-04-10T12:32:45.887Z,47.80
2019-04-10T12:35:15.051Z,47.60
2019-04-10T12:37:43.538Z,46.50
2019-04-10T12:40:12.413Z,46.60
2019-04-10T12:42:40.905Z,46.60
2019-04-10T12:45:09.988Z,46.20
2019-04-10T12:47:38.434Z,44.70
2019-04-10T12:50:08.135Z,44.30
2019-04-10T12:52:36.710Z,41.40
2019-04-10T12:55:06.500Z,43.50
2019-04-10T12:57:34.941Z,43.90
2019-04-10T13:00:05.231Z,42.00
2019-04-10T13:02:34.358Z,41.70
2019-04-10T13:05:04.994Z,40.70
2019-04-10T13:07:33.928Z,39.90
2019-04-10T13:10:02.624Z,40.60
2019-04-10T13:12:31.299Z,41.10
2019-04-10T13:15:01.198Z,41.20
2019-04-10T13:17:30.943Z,40.50
2019-04-10T13:19:59.684Z,39.10
2019-04-10T13:22:28.449Z,39.10
2019-04-10T13:24:57.706Z,37.70
2019-04-10T13:27:26.467Z,38.70
2019-04-10T13:29:55.057Z,38.50
2019-04-10T13:32:23.454Z,38.90
2019-04-10T13:34:51.909Z,38.00
2019-04-10T13:37:20.393Z,37.40
2019-04-10T13:39:48.941Z,37.00
2019-04-10T13:42:17.453Z,36.30
2019-04-10T13:44:46.741Z,34.40
2019-04-10T13:47:15.481Z,33.30
2019-04-10T13:49:44.195Z,32.40
2019-04-10T13:52:12.778Z,33.70
2019-04-10T13:54:41.382Z,34.50
2019-04-10T13:57:09.835Z,35.80
2019-04-10T13:59:39.356Z,35.30
2019-04-10T14:02:09.622Z,35.20
2019-04-10T14:04:39.568Z,34.90
2019-04-10T14:07:08.136Z,34.80
2019-04-10T14:09:44.034Z,35.90
2019-04-10T14:12:07.993Z,37.00
2019-04-10T14:14:37.051Z,37.80
2019-04-10T14:17:06.858Z,38.30
2019-04-10T14:19:35.931Z,37.00
2019-04-10T14:22:05.258Z,37.00
2019-04-10T14:24:44.017Z,36.00
2019-04-10T14:27:12.218Z,37.20
2019-04-10T14:29:40.802Z,35.90
2019-04-10T14:32:11.330Z,35.30
2019-04-10T14:34:40.789Z,35.80
2019-04-10T14:37:11.512Z,37.30
2019-04-10T14:39:41.136Z,37.70
2019-04-10T14:42:10.594Z,37.30
2019-04-10T14:44:39.209Z,37.40
2019-04-10T14:47:08.578Z,38.00
2019-04-10T14:49:37.585Z,37.60
2019-04-10T14:52:06.116Z,38.10
2019-04-10T14:54:35.753Z,36.30
2019-04-10T14:57:04.553Z,36.20
2019-04-10T14:59:33.799Z,37.10
2019-04-10T15:02:03.356Z,36.20
2019-04-10T15:04:31.807Z,37.30
2019-04-10T15:07:00.399Z,34.60
2019-04-10T15:09:28.836Z,32.30
2019-04-10T15:11:57.372Z,31.30
2019-04-10T15:14:26.228Z,31.00
2019-04-10T15:17:01.053Z,30.70
2019-04-10T15:19:24.902Z,30.60
2019-04-10T15:21:54.010Z,29.90
2019-04-10T15:24:23.685Z,29.20
2019-04-10T15:26:52.887Z,30.50
2019-04-10T15:29:22.698Z,30.20
2019-04-10T15:31:52.217Z,31.50
2019-04-10T15:34:20.740Z,31.30
2019-04-10T15:36:49.457Z,30.90
2019-04-10T15:39:25.783Z,31.50
2019-04-10T15:41:48.416Z,31.50
2019-04-10T15:44:18.215Z,31.40
2019-04-10T15:46:46.832Z,29.70
2019-04-10T15:49:15.391Z,29.20
2019-04-10T15:51:43.957Z,28.80
2019-04-10T15:54:12.449Z,28.40
2019-04-10T15:56:42.245Z,28.70
2019-04-10T15:59:10.803Z,28.30
2019-04-10T16:01:39.339Z,27.80
2019-04-10T16:04:08.633Z,28.90
2019-04-10T16:06:38.116Z,29.10
2019-04-10T16:09:07.777Z,30.20
2019-04-10T16:11:43.866Z,30.10
2019-04-10T16:14:20.891Z,30.00
2019-04-10T16:16:46.802Z,30.00
2019-04-10T16:19:20.463Z,30.30
2019-04-10T16:21:50.011Z,30.10
2019-04-10T16:24:20.647Z,30.40
2019-04-10T16:26:49.638Z,30.50
2019-04-10T16:29:18.232Z,30.00
2019-04-10T16:31:46.649Z,31.50
2019-04-10T16:34:15.688Z,32.10
2019-04-10T16:36:44.405Z,34.40
2019-04-10T16:39:17.574Z,34.80
2019-04-10T16:41:46.368Z,37.10
2019-04-10T16:44:15.068Z,38.00
2019-04-10T16:46:44.785Z,38.50
2019-04-10T16:49:14.726Z,39.90
2019-04-10T16:51:43.267Z,41.50
2019-04-10T16:54:12.612Z,43.40
2019-04-10T16:56:42.169Z,43.30
2019-04-10T16:59:10.820Z,43.80
2019-04-10T17:01:39.284Z,44.50
2019-04-10T17:04:09.004Z,44.80
2019-04-10T17:06:38.677Z,45.40
2019-04-10T17:09:10.275Z,45.70
2019-04-10T17:11:38.941Z,45.50
2019-04-10T17:14:07.806Z,44.60
2019-04-10T17:16:36.239Z,44.90
2019-04-10T17:19:05.639Z,44.40
2019-04-10T17:21:34.369Z,44.70
2019-04-10T17:24:03.145Z,44.80
2019-04-10T17:26:33.351Z,45.00
2019-04-10T17:29:02.935Z,45.00
2019-04-10T17:31:32.811Z,44.80
2019-04-10T17:34:02.665Z,45.20
2019-04-10T17:36:31.300Z,45.30
2019-04-10T17:39:00.828Z,45.90
2019-04-10T17:41:29.426Z,45.90
2019-04-10T17:43:58.857Z,46.10
2019-04-10T17:46:28.106Z,45.20
2019-04-10T17:48:56.692Z,46.20
2019-04-10T17:51:25.913Z,46.30
2019-04-10T17:53:55.790Z,46.00
2019-04-10T17:56:24.463Z,46.80
2019-04-10T17:58:53.966Z,47.00
2019-04-10T18:01:24.982Z,47.60
2019-04-10T18:03:58.149Z,47.40
2019-04-10T18:06:23.689Z,48.40
2019-04-10T18:08:52.133Z,48.00
2019-04-10T18:11:20.556Z,49.40
2019-04-10T18:13:49.198Z,49.10
2019-04-10T18:16:17.969Z,49.70
2019-04-10T18:18:47.281Z,49.60
2019-04-10T18:21:16.918Z,50.80
2019-04-10T18:23:45.603Z,50.00
2019-04-10T18:26:14.249Z,50.70
2019-04-10T18:28:43.564Z,50.60
2019-04-10T18:31:12.492Z,50.90
2019-04-10T18:33:41.052Z,51.60
2019-04-10T18:36:09.477Z,52.30
2019-04-10T18:38:37.883Z,52.40
2019-04-10T18:41:08.390Z,53.60
2019-04-10T18:43:36.612Z,53.30
2019-04-10T18:46:12.293Z,53.60
2019-04-10T18:48:35.246Z,54.10
2019-04-10T18:51:06.199Z,54.20
2019-04-10T18:53:33.877Z,54.40
2019-04-10T18:56:02.987Z,55.70
2019-04-10T18:58:33.841Z,56.70
2019-04-10T19:01:21.079Z,58.80
2019-04-10T19:04:01.468Z,56.30
2019-04-10T19:06:28.905Z,56.20
2019-04-10T19:09:07.803Z,57.50
2019-04-10T19:11:33.288Z,57.90
2019-04-10T19:13:57.680Z,57.40
2019-04-10T19:16:26.242Z,57.90
2019-04-10T19:18:55.358Z,57.50
2019-04-10T19:21:25.011Z,58.70
2019-04-10T19:23:53.521Z,58.20
2019-04-10T19:26:23.170Z,59.20
2019-04-10T19:28:52.788Z,58.00
2019-04-10T19:31:24.650Z,58.20
2019-04-10T19:33:53.162Z,58.50
2019-04-10T19:36:21.666Z,59.50
2019-04-10T19:38:50.195Z,60.70
2019-04-10T19:41:25.120Z,60.00
2019-04-10T19:43:48.757Z,60.00
2019-04-10T19:46:17.472Z,60.00
2019-04-10T19:48:48.960Z,61.20
2019-04-10T19:51:16.372Z,61.20
2019-04-10T19:53:45.805Z,60.70
2019-04-10T19:56:14.327Z,61.00
2019-04-10T19:58:43.989Z,61.10
2019-04-10T20:01:12.780Z,61.20
2019-04-10T20:03:41.339Z,62.10
2019-04-10T20:06:10.000Z,62.00
2019-04-10T20:08:38.440Z,62.30
2019-04-10T20:11:06.860Z,61.90
2019-04-10T20:13:35.253Z,62.70
2019-04-10T20:16:03.720Z,63.20
2019-04-10T20:18:32.824Z,63.30
2019-04-10T20:21:01.842Z,63.50
2019-04-10T20:23:30.326Z,64.00
2019-04-10T20:25:58.872Z,63.20
2019-04-10T20:28:27.358Z,63.80
2019-04-10T20:30:56.768Z,64.00
2019-04-10T20:33:26.999Z,63.70
2019-04-10T20:35:56.398Z,64.10
2019-04-10T20:38:25.182Z,64.60
2019-04-10T20:40:54.039Z,64.50
2019-04-10T20:43:22.823Z,63.60
2019-04-10T20:45:51.307Z,63.80
2019-04-10T20:48:20.375Z,65.00
2019-04-10T20:50:50.249Z,66.00
2019-04-10T20:53:19.909Z,66.60
2019-04-10T20:55:48.470Z,67.20
2019-04-10T20:58:17.684Z,67.30
2019-04-10T21:00:47.276Z,67.50
2019-04-10T21:03:15.726Z,67.50
2019-04-10T21:05:44.550Z,67.60
2019-04-10T21:08:13.741Z,67.30
2019-04-10T21:10:42.902Z,67.60
2019-04-10T21:13:11.524Z,68.30
2019-04-10T21:15:40.109Z,68.80
2019-04-10T21:18:08.606Z,68.90
2019-04-10T21:20:40.767Z,69.10
2019-04-10T21:23:09.405Z,69.70
2019-04-10T21:25:37.805Z,70.40
2019-04-10T21:28:06.248Z,69.70
2019-04-10T21:30:36.304Z,69.90
2019-04-10T21:33:22.627Z,70.40
2019-04-10T21:35:51.938Z,70.70
2019-04-10T21:38:21.467Z,71.20
2019-04-10T21:40:50.031Z,72.20
2019-04-10T21:43:18.566Z,72.30
2019-04-10T21:45:49.699Z,72.90
2019-04-10T21:48:18.865Z,72.90
2019-04-10T21:50:47.453Z,72.20
2019-04-10T21:53:16.466Z,72.70
2019-04-10T21:55:45.857Z,73.80
2019-04-10T21:58:14.536Z,73.60
2019-04-10T22:00:51.145Z,74.10
2019-04-10T22:03:19.645Z,73.30
2019-04-10T22:05:55.885Z,73.50
2019-04-10T22:08:41.438Z,73.90
2019-04-10T22:11:09.849Z,73.70
2019-04-10T22:13:40.061Z,73.90
2019-04-10T22:16:11.411Z,74.10
2019-04-10T22:18:40.117Z,73.70
2019-04-10T22:21:08.778Z,74.50
2019-04-10T22:23:37.377Z,74.30
2019-04-10T22:26:05.901Z,75.90
2019-04-10T22:28:34.320Z,77.00
2019-04-10T22:31:02.743Z,77.10
2019-04-10T22:33:32.064Z,77.70
2019-04-10T22:36:00.538Z,78.10
2019-04-10T22:38:29.332Z,78.20
2019-04-10T22:40:58.160Z,77.00
2019-04-10T22:43:27.846Z,77.60
2019-04-10T22:45:56.998Z,77.60
2019-04-10T22:48:25.483Z,77.90
2019-04-10T22:50:53.889Z,77.60
2019-04-10T22:53:23.433Z,79.00
2019-04-10T22:55:52.840Z,78.90
2019-04-10T22:58:21.349Z,79.20
2019-04-10T23:00:50.950Z,79.10
2019-04-10T23:03:20.210Z,79.90
2019-04-10T23:05:48.974Z,80.20
2019-04-10T23:08:17.693Z,81.00
2019-04-10T23:10:46.300Z,81.00
2019-04-10T23:13:14.730Z,81.60
2019-04-10T23:15:43.981Z,82.50
2019-04-10T23:18:13.047Z,82.90
2019-04-10T23:20:41.779Z,83.00
2019-04-10T23:23:10.634Z,83.30
2019-04-10T23:25:40.469Z,83.60
2019-04-10T23:28:09.495Z,84.50
2019-04-10T23:30:39.131Z,83.60
2019-04-10T23:33:08.062Z,83.60
2019-04-10T23:35:37.799Z,84.50
2019-04-10T23:38:07.043Z,85.00
2019-04-10T23:40:35.505Z,85.60
2019-04-10T23:43:11.312Z,85.70
2019-04-10T23:45:34.635Z,86.00
2019-04-10T23:48:03.207Z,87.20
2019-04-10T23:50:32.384Z,87.00
2019-04-10T23:53:01.047Z,87.10
2019-04-10T23:55:32.932Z,87.80
2019-04-10T23:58:02.096Z,88.10
